createdAt,value
2019-04-10T00:00:59.306Z,7.74
2019-04-10T00:01:59.369Z,7.76
2019-04-10T00:02:59.127Z,7.61
2019-04-10T00:03:59.118Z,7.60
2019-04-10T00:04:59.199Z,7.64
2019-04-10T00:05:59.088Z,7.64
2019-04-10T00:07:10.443Z,7.64
2019-04-10T00:08:00.116Z,7.64
2019-04-10T00:08:59.090Z,7.61
2019-04-10T00:09:59.273Z,7.57
2019-04-10T00:10:59.050Z,7.58
2019-04-10T00:11:59.043Z,7.58
2019-04-10T00:12:59.007Z,7.44
2019-04-10T00:13:59.041Z,7.50
2019-04-10T00:14:58.991Z,7.50
2019-04-10T00:15:59.142Z,7.50
2019-04-10T00:16:58.964Z,7.46
2019-04-10T00:17:59.828Z,7.46
2019-04-10T00:18:58.960Z,7.40
2019-04-10T00:19:58.980Z,7.44
2019-04-10T00:20:58.927Z,7.37
2019-04-10T00:21:59.807Z,7.40
2019-04-10T00:22:58.911Z,7.43
2019-04-10T00:23:59.632Z,7.40
2019-04-10T00:24:58.881Z,7.40
2019-04-10T00:25:59.332Z,7.28
2019-04-10T00:26:58.865Z,7.28
2019-04-10T00:27:59.085Z,7.34
2019-04-10T00:28:58.833Z,7.28
2019-04-10T00:29:58.837Z,7.26
2019-04-10T00:30:59.734Z,7.28
2019-04-10T00:32:01.760Z,7.26
2019-04-10T00:32:58.787Z,7.31
2019-04-10T00:33:59.018Z,7.28
2019-04-10T00:34:58.783Z,7.26
2019-04-10T00:35:59.511Z,7.25
2019-04-10T00:36:59.604Z,7.26
2019-04-10T00:37:59.561Z,7.28
2019-04-10T00:38:58.748Z,7.25
2019-04-10T00:39:59.165Z,7.26
2019-04-10T00:40:59.603Z,7.25
2019-04-10T00:41:58.832Z,7.24
2019-04-10T00:42:58.834Z,7.19
2019-04-10T00:43:59.398Z,7.15
2019-04-10T00:44:59.714Z,7.08
2019-04-10T00:45:58.649Z,7.15
2019-04-10T00:46:58.987Z,7.18
2019-04-10T00:47:59.547Z,7.13
2019-04-10T00:48:58.703Z,7.06
2019-04-10T00:49:58.660Z,7.08
2019-04-10T00:50:59.254Z,7.08
2019-04-10T00:51:59.566Z,7.04
2019-04-10T00:52:58.793Z,7.08
2019-04-10T00:53:59.325Z,6.99
2019-04-10T00:54:59.423Z,7.00
2019-04-10T00:55:58.594Z,7.01
2019-04-10T00:56:59.086Z,7.04
2019-04-10T00:57:58.523Z,7.08
2019-04-10T00:58:59.547Z,7.03
2019-04-10T00:59:58.880Z,7.03
2019-04-10T01:00:59.238Z,7.01
2019-04-10T01:01:58.522Z,7.03
2019-04-10T01:02:58.862Z,7.01
2019-04-10T01:03:58.445Z,6.97
2019-04-10T01:04:58.524Z,6.97
2019-04-10T01:05:58.440Z,6.99
2019-04-10T01:06:58.419Z,6.93
2019-04-10T01:07:58.464Z,7.01
2019-04-10T01:08:59.248Z,6.85
2019-04-10T01:09:58.389Z,6.86
2019-04-10T01:10:58.848Z,6.83
2019-04-10T01:11:59.364Z,6.83
2019-04-10T01:12:58.732Z,6.82
2019-04-10T01:13:59.104Z,6.81
2019-04-10T01:14:58.327Z,6.78
2019-04-10T01:15:58.644Z,6.73
2019-04-10T01:16:58.350Z,6.71
2019-04-10T01:17:59.007Z,6.73
2019-04-10T01:18:58.289Z,6.74
2019-04-10T01:19:58.603Z,6.74
2019-04-10T01:20:58.271Z,6.75
2019-04-10T01:21:58.907Z,6.78
2019-04-10T01:22:59.320Z,6.73
2019-04-10T01:23:59.403Z,6.70
2019-04-10T01:24:58.222Z,6.73
2019-04-10T01:25:58.901Z,6.67
2019-04-10T01:26:59.252Z,6.60
2019-04-10T01:27:58.487Z,6.65
2019-04-10T01:28:58.179Z,6.68
2019-04-10T01:29:58.158Z,6.68
2019-04-10T01:30:59.096Z,6.64
2019-04-10T01:31:58.182Z,6.68
2019-04-10T01:32:58.537Z,6.63
2019-04-10T01:33:58.124Z,6.60
2019-04-10T01:34:58.873Z,6.65
2019-04-10T01:35:58.468Z,6.61
2019-04-10T01:36:58.517Z,6.52
2019-04-10T01:38:01.001Z,6.50
2019-04-10T01:38:59.937Z,6.52
2019-04-10T01:39:58.988Z,6.53
2019-04-10T01:40:58.044Z,6.55
2019-04-10T01:41:58.520Z,6.53
2019-04-10T01:43:06.330Z,6.63
2019-04-10T01:43:59.318Z,6.52
2019-04-10T01:44:57.994Z,6.49
2019-04-10T01:45:57.991Z,6.49
2019-04-10T01:46:59.104Z,6.50
2019-04-10T01:47:57.962Z,6.53
2019-04-10T01:48:57.957Z,6.49
2019-04-10T01:49:57.993Z,6.52
2019-04-10T01:50:59.022Z,6.47
2019-04-10T01:51:57.918Z,6.49
2019-04-10T01:52:57.912Z,6.40
2019-04-10T01:53:58.512Z,6.38
2019-04-10T01:54:57.887Z,6.31
2019-04-10T01:55:57.910Z,6.40
2019-04-10T01:56:57.862Z,6.40
2019-04-10T01:57:58.796Z,6.45
2019-04-10T01:58:57.848Z,6.34
2019-04-10T01:59:58.315Z,6.34
2019-04-10T02:00:57.826Z,6.42
2019-04-10T02:01:58.742Z,6.27
2019-04-10T02:02:58.030Z,6.42
2019-04-10T02:03:58.504Z,6.34
2019-04-10T02:04:58.447Z,6.35
2019-04-10T02:05:57.801Z,6.35
2019-04-10T02:06:58.006Z,6.34
2019-04-10T02:08:05.691Z,6.28
2019-04-10T02:08:58.731Z,6.24
2019-04-10T02:09:57.732Z,6.31
2019-04-10T02:10:58.646Z,6.25
2019-04-10T02:11:58.528Z,6.19
2019-04-10T02:12:57.693Z,6.15
2019-04-10T02:13:58.269Z,6.15
2019-04-10T02:14:57.661Z,6.19
2019-04-10T02:15:58.587Z,6.18
2019-04-10T02:16:57.650Z,6.18
2019-04-10T02:17:57.627Z,6.25
2019-04-10T02:18:57.791Z,6.21
2019-04-10T02:19:58.624Z,6.25
2019-04-10T02:20:57.604Z,6.11
2019-04-10T02:21:58.152Z,6.13
2019-04-10T02:22:58.219Z,6.15
2019-04-10T02:23:58.632Z,6.19
2019-04-10T02:24:57.744Z,6.15
2019-04-10T02:25:57.602Z,6.03
2019-04-10T02:26:58.194Z,6.02
2019-04-10T02:27:58.534Z,6.11
2019-04-10T02:28:57.665Z,6.05
2019-04-10T02:29:57.911Z,6.12
2019-04-10T02:30:58.798Z,5.98
2019-04-10T02:31:57.628Z,5.98
2019-04-10T02:32:57.937Z,5.95
2019-04-10T02:33:59.402Z,5.97
2019-04-10T02:34:58.077Z,5.95
2019-04-10T02:35:58.969Z,5.95
2019-04-10T02:36:58.614Z,5.94
2019-04-10T02:38:00.565Z,5.95
2019-04-10T02:39:08.827Z,5.97
2019-04-10T02:40:00.990Z,5.85
2019-04-10T02:40:57.640Z,5.85
2019-04-10T02:41:58.386Z,5.79
2019-04-10T02:42:58.872Z,5.82
2019-04-10T02:43:58.025Z,5.77
2019-04-10T02:44:57.837Z,5.79
2019-04-10T02:45:57.729Z,5.77
2019-04-10T02:46:59.255Z,5.67
2019-04-10T02:47:57.301Z,5.72
2019-04-10T02:48:58.061Z,5.65
2019-04-10T02:49:57.323Z,5.70
2019-04-10T02:50:57.627Z,5.55
2019-04-10T02:51:57.262Z,5.58
2019-04-10T02:52:57.762Z,5.62
2019-04-10T02:53:57.995Z,5.55
2019-04-10T02:54:57.804Z,5.59
2019-04-10T02:55:58.236Z,5.61
2019-04-10T02:56:57.606Z,5.57
2019-04-10T02:57:58.765Z,5.50
2019-04-10T02:58:58.463Z,5.58
2019-04-10T02:59:57.643Z,5.57
2019-04-10T03:00:58.958Z,5.54
2019-04-10T03:01:57.978Z,5.48
2019-04-10T03:02:59.207Z,5.40
2019-04-10T03:03:57.115Z,5.37
2019-04-10T03:04:57.425Z,5.43
2019-04-10T03:05:58.653Z,5.47
2019-04-10T03:06:57.609Z,5.33
2019-04-10T03:07:58.229Z,5.36
2019-04-10T03:09:10.835Z,5.36
2019-04-10T03:10:08.992Z,5.34
2019-04-10T03:11:02.636Z,5.33
2019-04-10T03:11:59.312Z,5.33
2019-04-10T03:12:58.566Z,5.30
2019-04-10T03:13:57.069Z,5.24
2019-04-10T03:14:57.014Z,5.25
2019-04-10T03:15:57.821Z,5.27
2019-04-10T03:16:56.974Z,5.21
2019-04-10T03:17:56.972Z,5.16
2019-04-10T03:18:56.971Z,5.18
2019-04-10T03:19:58.087Z,5.11
2019-04-10T03:20:56.932Z,5.04
2019-04-10T03:21:57.657Z,5.18
2019-04-10T03:22:56.963Z,5.09
2019-04-10T03:23:57.927Z,5.11
2019-04-10T03:24:56.923Z,5.15
2019-04-10T03:25:57.297Z,5.07
2019-04-10T03:26:56.864Z,5.04
2019-04-10T03:27:56.867Z,5.01
2019-04-10T03:28:57.755Z,4.94
2019-04-10T03:29:57.108Z,5.06
2019-04-10T03:30:59.986Z,5.00
2019-04-10T03:31:57.712Z,4.97
2019-04-10T03:33:02.582Z,5.03
2019-04-10T03:33:58.637Z,5.00
2019-04-10T03:34:56.776Z,4.93
2019-04-10T03:35:57.074Z,4.94
2019-04-10T03:36:57.982Z,5.00
2019-04-10T03:37:57.421Z,5.00
2019-04-10T03:39:01.432Z,4.97
2019-04-10T03:39:57.742Z,4.94
2019-04-10T03:40:56.711Z,5.00
2019-04-10T03:41:56.833Z,4.91
2019-04-10T03:42:57.209Z,4.93
2019-04-10T03:43:56.730Z,4.89
2019-04-10T03:44:56.955Z,4.91
2019-04-10T03:45:57.147Z,4.79
2019-04-10T03:46:56.645Z,4.88
2019-04-10T03:47:57.871Z,4.89
2019-04-10T03:48:57.679Z,4.85
2019-04-10T03:49:56.636Z,4.89
2019-04-10T03:50:57.691Z,4.82
2019-04-10T03:51:56.767Z,4.85
2019-04-10T03:52:56.577Z,4.83
2019-04-10T03:53:56.573Z,4.83
2019-04-10T03:54:56.625Z,4.88
2019-04-10T03:55:57.090Z,4.88
2019-04-10T03:56:56.529Z,4.85
2019-04-10T03:57:56.536Z,4.86
2019-04-10T03:58:56.509Z,4.86
2019-04-10T03:59:56.591Z,4.79
2019-04-10T04:00:56.545Z,4.75
2019-04-10T04:01:57.495Z,4.75
2019-04-10T04:02:56.463Z,4.89
2019-04-10T04:03:57.278Z,4.85
2019-04-10T04:04:56.450Z,4.78
2019-04-10T04:05:57.231Z,4.77
2019-04-10T04:06:56.436Z,4.75
2019-04-10T04:07:57.136Z,4.71
2019-04-10T04:09:06.653Z,4.74
2019-04-10T04:09:57.387Z,4.77
2019-04-10T04:10:57.260Z,4.75
2019-04-10T04:11:56.370Z,4.78
2019-04-10T04:12:57.205Z,4.74
2019-04-10T04:13:56.379Z,4.74
2019-04-10T04:14:56.945Z,4.77
2019-04-10T04:15:56.340Z,4.72
2019-04-10T04:16:56.308Z,4.78
2019-04-10T04:17:56.861Z,4.75
2019-04-10T04:18:56.303Z,4.66
2019-04-10T04:19:56.689Z,4.69
2019-04-10T04:20:56.267Z,4.67
2019-04-10T04:21:56.440Z,4.64
2019-04-10T04:22:57.048Z,4.67
2019-04-10T04:23:57.233Z,4.77
2019-04-10T04:24:56.249Z,4.64
2019-04-10T04:25:56.863Z,4.67
2019-04-10T04:26:57.269Z,4.64
2019-04-10T04:27:56.261Z,4.63
2019-04-10T04:28:56.198Z,4.61
2019-04-10T04:29:56.172Z,4.69
2019-04-10T04:30:56.818Z,4.63
2019-04-10T04:31:56.892Z,4.60
2019-04-10T04:32:56.152Z,4.66
2019-04-10T04:33:56.135Z,4.60
2019-04-10T04:34:56.371Z,4.60
2019-04-10T04:35:56.207Z,4.60
2019-04-10T04:36:56.141Z,4.59
2019-04-10T04:37:56.153Z,4.60
2019-04-10T04:38:56.098Z,4.63
2019-04-10T04:39:56.332Z,4.60
2019-04-10T04:40:56.045Z,4.60
2019-04-10T04:41:56.373Z,4.64
2019-04-10T04:42:56.060Z,4.61
2019-04-10T04:43:56.051Z,4.59
2019-04-10T04:44:56.278Z,4.60
2019-04-10T04:45:55.993Z,4.53
2019-04-10T04:46:57.031Z,4.61
2019-04-10T04:47:55.979Z,4.63
2019-04-10T04:48:55.959Z,4.63
2019-04-10T04:49:56.267Z,4.59
2019-04-10T04:50:56.681Z,4.53
2019-04-10T04:51:55.935Z,4.61
2019-04-10T04:52:55.998Z,4.54
2019-04-10T04:53:56.908Z,4.53
2019-04-10T04:54:55.937Z,4.56
2019-04-10T04:55:55.933Z,4.54
2019-04-10T04:56:56.183Z,4.53
2019-04-10T04:57:55.866Z,4.54
2019-04-10T04:58:55.974Z,4.59
2019-04-10T04:59:56.851Z,4.51
2019-04-10T05:00:56.462Z,4.48
2019-04-10T05:01:56.984Z,4.43
2019-04-10T05:02:55.858Z,4.53
2019-04-10T05:03:55.812Z,4.43
2019-04-10T05:04:55.922Z,4.43
2019-04-10T05:05:56.189Z,4.49
2019-04-10T05:06:55.770Z,4.35
2019-04-10T05:08:00.059Z,4.43
2019-04-10T05:08:56.875Z,4.48
2019-04-10T05:09:56.165Z,4.42
2019-04-10T05:10:56.030Z,4.46
2019-04-10T05:11:55.709Z,4.46
2019-04-10T05:12:55.791Z,4.53
2019-04-10T05:13:55.969Z,4.56
2019-04-10T05:14:55.781Z,4.56
2019-04-10T05:15:55.667Z,4.45
2019-04-10T05:16:55.674Z,4.46
2019-04-10T05:17:55.724Z,4.49
2019-04-10T05:18:56.221Z,4.46
2019-04-10T05:19:55.673Z,4.46
2019-04-10T05:20:56.691Z,4.49
2019-04-10T05:21:55.595Z,4.48
2019-04-10T05:22:55.615Z,4.49
2019-04-10T05:23:55.581Z,4.53
2019-04-10T05:24:56.400Z,4.48
2019-04-10T05:25:56.149Z,4.53
2019-04-10T05:26:55.554Z,4.49
2019-04-10T05:27:55.536Z,4.46
2019-04-10T05:28:55.555Z,4.51
2019-04-10T05:29:55.644Z,4.57
2019-04-10T05:30:55.505Z,4.54
2019-04-10T05:31:56.563Z,4.49
2019-04-10T05:32:55.720Z,4.53
2019-04-10T05:33:55.511Z,4.49
2019-04-10T05:34:55.548Z,4.57
2019-04-10T05:35:55.449Z,4.56
2019-04-10T05:36:55.433Z,4.60
2019-04-10T05:37:56.133Z,4.61
2019-04-10T05:38:55.406Z,4.64
2019-04-10T05:39:55.427Z,4.61
2019-04-10T05:40:55.384Z,4.61
2019-04-10T05:41:55.377Z,4.71
2019-04-10T05:42:55.538Z,4.78
2019-04-10T05:43:55.403Z,4.77
2019-04-10T05:44:56.449Z,4.75
2019-04-10T05:45:55.336Z,4.71
2019-04-10T05:46:55.318Z,4.75
2019-04-10T05:47:55.308Z,4.74
2019-04-10T05:48:55.931Z,4.72
2019-04-10T05:49:55.590Z,4.75
2019-04-10T05:51:02.287Z,4.78
2019-04-10T05:51:56.271Z,4.78
2019-04-10T05:52:55.883Z,4.82
2019-04-10T05:53:55.498Z,4.83
2019-04-10T05:54:55.744Z,4.78
2019-04-10T05:55:55.875Z,4.88
2019-04-10T05:56:55.316Z,4.85
2019-04-10T05:57:55.316Z,4.88
2019-04-10T05:58:55.189Z,4.83
2019-04-10T05:59:56.191Z,4.85
2019-04-10T06:00:55.191Z,4.78
2019-04-10T06:01:55.189Z,4.88
2019-04-10T06:02:56.375Z,4.93
2019-04-10T06:03:55.150Z,4.96
2019-04-10T06:04:55.980Z,4.88
2019-04-10T06:05:56.333Z,5.04
2019-04-10T06:06:55.111Z,5.00
2019-04-10T06:07:55.123Z,4.91
2019-04-10T06:08:55.969Z,4.94
2019-04-10T06:10:00.231Z,5.12
2019-04-10T06:10:56.160Z,5.07
2019-04-10T06:11:55.346Z,5.09
2019-04-10T06:12:55.117Z,5.04
2019-04-10T06:13:55.050Z,5.07
2019-04-10T06:14:55.025Z,5.12
2019-04-10T06:15:55.160Z,5.18
2019-04-10T06:16:55.128Z,5.03
2019-04-10T06:17:55.008Z,5.21
2019-04-10T06:18:55.556Z,5.18
2019-04-10T06:19:55.004Z,5.21
2019-04-10T06:20:54.949Z,5.18
2019-04-10T06:21:54.974Z,5.24
2019-04-10T06:22:54.954Z,5.30
2019-04-10T06:23:56.712Z,5.32
2019-04-10T06:24:54.902Z,5.29
2019-04-10T06:25:56.228Z,5.33
2019-04-10T06:26:56.085Z,5.34
2019-04-10T06:27:54.895Z,5.36
2019-04-10T06:28:54.859Z,5.36
2019-04-10T06:29:55.249Z,5.39
2019-04-10T06:30:54.831Z,5.41
2019-04-10T06:31:54.872Z,5.43
2019-04-10T06:32:55.748Z,5.40
2019-04-10T06:33:54.801Z,5.47
2019-04-10T06:34:55.312Z,5.50
2019-04-10T06:35:55.130Z,5.52
2019-04-10T06:36:54.815Z,5.54
2019-04-10T06:37:54.845Z,5.54
2019-04-10T06:38:55.121Z,5.58
2019-04-10T06:40:05.058Z,5.57
2019-04-10T06:40:55.748Z,5.57
2019-04-10T06:41:54.716Z,5.58
2019-04-10T06:42:56.390Z,5.69
2019-04-10T06:43:55.248Z,5.59
2019-04-10T06:44:54.680Z,5.66
2019-04-10T06:45:55.759Z,5.69
2019-04-10T06:46:54.967Z,5.67
2019-04-10T06:47:54.980Z,5.73
2019-04-10T06:48:54.642Z,5.73
2019-04-10T06:49:55.467Z,5.67
2019-04-10T06:50:55.638Z,5.80
2019-04-10T06:51:55.589Z,5.76
2019-04-10T06:52:54.801Z,5.84
2019-04-10T06:54:02.781Z,5.84
2019-04-10T06:54:55.782Z,5.85
2019-04-10T06:55:54.582Z,5.85
2019-04-10T06:56:54.595Z,5.94
2019-04-10T06:57:57.562Z,5.93
2019-04-10T06:58:54.595Z,5.97
2019-04-10T06:59:54.533Z,5.94
2019-04-10T07:00:55.268Z,6.06
2019-04-10T07:01:56.689Z,6.13
2019-04-10T07:02:54.691Z,6.12
2019-04-10T07:04:00.990Z,6.15
2019-04-10T07:05:01.546Z,6.16
2019-04-10T07:06:06.237Z,6.15
2019-04-10T07:07:00.730Z,6.15
2019-04-10T07:08:01.848Z,6.21
2019-04-10T07:08:55.501Z,6.19
2019-04-10T07:09:55.211Z,6.16
2019-04-10T07:11:01.759Z,6.27
2019-04-10T07:11:59.464Z,6.21
2019-04-10T07:12:55.436Z,6.24
2019-04-10T07:13:55.212Z,6.25
2019-04-10T07:14:57.805Z,6.27
2019-04-10T07:15:57.663Z,6.47
2019-04-10T07:16:54.915Z,6.35
2019-04-10T07:17:55.470Z,6.47
2019-04-10T07:18:54.302Z,6.63
2019-04-10T07:19:54.314Z,6.61
2019-04-10T07:20:59.252Z,6.65
2019-04-10T07:21:56.316Z,6.81
2019-04-10T07:22:55.416Z,6.79
2019-04-10T07:23:57.354Z,6.86
2019-04-10T07:24:54.489Z,6.79
2019-04-10T07:25:55.057Z,6.83
2019-04-10T07:26:55.205Z,6.92
2019-04-10T07:27:54.412Z,6.96
2019-04-10T07:28:54.436Z,6.93
2019-04-10T07:29:58.058Z,7.10
2019-04-10T07:31:00.206Z,7.08
2019-04-10T07:31:55.159Z,7.13
2019-04-10T07:32:55.109Z,7.16
2019-04-10T07:33:54.891Z,7.22
2019-04-10T07:34:59.114Z,7.24
2019-04-10T07:35:56.623Z,7.24
2019-04-10T07:36:54.114Z,7.31
2019-04-10T07:37:56.656Z,7.36
2019-04-10T07:38:56.193Z,7.43
2019-04-10T07:39:55.086Z,7.46
2019-04-10T07:40:54.704Z,7.60
2019-04-10T07:41:54.103Z,7.71
2019-04-10T07:42:54.565Z,7.80
2019-04-10T07:43:56.554Z,7.86
2019-04-10T07:44:56.206Z,7.91
2019-04-10T07:45:56.655Z,7.88
2019-04-10T07:46:55.259Z,7.91
2019-04-10T07:47:54.032Z,7.86
2019-04-10T07:48:54.514Z,7.91
2019-04-10T07:49:54.590Z,7.88
2019-04-10T07:50:53.962Z,8.06
2019-04-10T07:51:54.118Z,8.09
2019-04-10T07:52:54.234Z,8.14
2019-04-10T07:53:53.968Z,8.24
2019-04-10T07:54:54.568Z,8.21
2019-04-10T07:56:01.424Z,8.16
2019-04-10T07:56:55.733Z,8.28
2019-04-10T07:57:55.109Z,8.13
2019-04-10T07:58:53.901Z,8.21
2019-04-10T07:59:54.605Z,8.29
2019-04-10T08:00:53.857Z,8.28
2019-04-10T08:01:53.850Z,8.37
2019-04-10T08:02:53.844Z,8.35
2019-04-10T08:03:54.040Z,8.47
2019-04-10T08:04:53.961Z,8.41
2019-04-10T08:05:54.744Z,8.38
2019-04-10T08:06:54.380Z,8.55
2019-04-10T08:07:55.924Z,8.52
2019-04-10T08:08:53.748Z,8.56
2019-04-10T08:09:54.066Z,8.59
2019-04-10T08:10:53.739Z,8.70
2019-04-10T08:11:54.453Z,8.80
2019-04-10T08:12:54.328Z,8.92
2019-04-10T08:13:54.926Z,8.96
2019-04-10T08:14:54.052Z,9.01
2019-04-10T08:15:54.192Z,9.04
2019-04-10T08:16:53.662Z,8.93
2019-04-10T08:17:54.038Z,9.04
2019-04-10T08:18:54.165Z,8.98
2019-04-10T08:19:53.627Z,8.96
2019-04-10T08:20:53.610Z,8.96
2019-04-10T08:21:54.816Z,9.04
2019-04-10T08:22:53.595Z,9.03
2019-04-10T08:23:54.792Z,9.08
2019-04-10T08:24:53.639Z,9.11
2019-04-10T08:25:53.766Z,9.11
2019-04-10T08:26:53.551Z,9.09
2019-04-10T08:27:54.321Z,9.32
2019-04-10T08:28:53.816Z,9.27
2019-04-10T08:29:53.571Z,9.36
2019-04-10T08:30:54.563Z,9.41
2019-04-10T08:31:53.501Z,9.50
2019-04-10T08:33:00.715Z,9.45
2019-04-10T08:33:54.749Z,9.52
2019-04-10T08:34:53.464Z,9.63
2019-04-10T08:35:53.497Z,9.57
2019-04-10T08:36:55.048Z,9.63
2019-04-10T08:37:53.465Z,9.50
2019-04-10T08:38:53.422Z,9.63
2019-04-10T08:39:53.476Z,9.48
2019-04-10T08:40:54.398Z,9.57
2019-04-10T08:41:54.380Z,9.59
2019-04-10T08:42:53.502Z,9.67
2019-04-10T08:43:54.438Z,9.59
2019-04-10T08:44:54.221Z,9.42
2019-04-10T08:45:53.987Z,9.42
2019-04-10T08:46:53.331Z,9.50
2019-04-10T08:47:53.356Z,9.44
2019-04-10T08:48:53.914Z,9.54
2019-04-10T08:49:53.333Z,9.59
2019-04-10T08:50:53.291Z,9.60
2019-04-10T08:51:53.273Z,9.63
2019-04-10T08:52:53.637Z,9.65
2019-04-10T08:53:55.199Z,9.75
2019-04-10T08:54:53.281Z,9.81
2019-04-10T08:55:53.261Z,9.75
2019-04-10T08:56:53.226Z,9.85
2019-04-10T08:57:54.404Z,9.84
2019-04-10T08:58:53.201Z,9.84
2019-04-10T08:59:54.140Z,10.08
2019-04-10T09:00:54.282Z,10.05
2019-04-10T09:01:53.659Z,10.05
2019-04-10T09:02:53.145Z,10.10
2019-04-10T09:03:53.162Z,10.24
2019-04-10T09:04:53.230Z,10.36
2019-04-10T09:05:53.229Z,10.34
2019-04-10T09:06:53.110Z,10.41
2019-04-10T09:07:53.092Z,10.55
2019-04-10T09:08:53.136Z,10.49
2019-04-10T09:09:54.090Z,10.61
2019-04-10T09:10:53.076Z,10.68
2019-04-10T09:11:53.504Z,10.65
2019-04-10T09:12:54.513Z,10.55
2019-04-10T09:13:53.040Z,10.60
2019-04-10T09:14:53.877Z,10.48
2019-04-10T09:15:54.035Z,10.55
2019-04-10T09:16:53.146Z,10.58
2019-04-10T09:17:53.044Z,10.57
2019-04-10T09:18:53.810Z,10.61
2019-04-10T09:19:54.010Z,10.41
2019-04-10T09:20:53.140Z,10.43
2019-04-10T09:21:52.943Z,10.54
2019-04-10T09:23:14.427Z,10.57
2019-04-10T09:23:56.207Z,10.68
2019-04-10T09:24:52.951Z,10.58
2019-04-10T09:25:52.928Z,10.64
2019-04-10T09:26:52.916Z,10.65
2019-04-10T09:27:53.872Z,10.67
2019-04-10T09:28:52.979Z,10.78
2019-04-10T09:29:53.928Z,10.76
2019-04-10T09:30:53.222Z,10.80
2019-04-10T09:31:53.758Z,10.76
2019-04-10T09:32:52.842Z,10.78
2019-04-10T09:33:53.718Z,10.75
2019-04-10T09:34:53.017Z,10.78
2019-04-10T09:35:53.015Z,10.76
2019-04-10T09:36:53.457Z,10.79
2019-04-10T09:37:52.759Z,10.75
2019-04-10T09:38:52.897Z,10.91
2019-04-10T09:39:54.669Z,10.80
2019-04-10T09:40:53.305Z,10.79
2019-04-10T09:41:52.971Z,11.01
2019-04-10T09:42:52.709Z,11.04
2019-04-10T09:43:52.697Z,11.08
2019-04-10T09:44:52.855Z,11.20
2019-04-10T09:45:53.576Z,11.36
2019-04-10T09:46:53.711Z,11.36
2019-04-10T09:47:52.686Z,11.40
2019-04-10T09:48:52.643Z,11.36
2019-04-10T09:49:53.593Z,11.33
2019-04-10T09:50:52.687Z,11.25
2019-04-10T09:51:52.601Z,11.40
2019-04-10T09:52:52.596Z,11.41
2019-04-10T09:53:53.161Z,11.38
2019-04-10T09:54:53.150Z,11.54
2019-04-10T09:55:52.556Z,11.46
2019-04-10T09:56:52.830Z,11.48
2019-04-10T09:57:52.574Z,11.48
2019-04-10T09:58:53.239Z,11.49
2019-04-10T09:59:52.711Z,11.56
2019-04-10T10:00:52.500Z,11.61
2019-04-10T10:01:52.813Z,11.73
2019-04-10T10:02:52.986Z,11.70
2019-04-10T10:03:52.795Z,11.62
2019-04-10T10:04:53.489Z,11.51
2019-04-10T10:05:53.067Z,11.54
2019-04-10T10:06:53.367Z,11.46
2019-04-10T10:07:53.605Z,11.46
2019-04-10T10:08:52.430Z,11.64
2019-04-10T10:09:52.392Z,11.67
2019-04-10T10:10:53.382Z,11.58
2019-04-10T10:11:53.401Z,11.51
2019-04-10T10:12:52.653Z,11.64
2019-04-10T10:13:52.358Z,11.69
2019-04-10T10:14:52.342Z,11.64
2019-04-10T10:15:52.326Z,11.85
2019-04-10T10:16:52.637Z,11.95
2019-04-10T10:17:52.919Z,12.07
2019-04-10T10:18:52.301Z,12.21
2019-04-10T10:19:53.840Z,12.17
2019-04-10T10:20:52.341Z,12.26
2019-04-10T10:21:52.566Z,12.28
2019-04-10T10:22:52.243Z,12.38
2019-04-10T10:23:52.270Z,12.47
2019-04-10T10:24:53.096Z,12.40
2019-04-10T10:25:53.216Z,12.47
2019-04-10T10:26:52.202Z,12.47
2019-04-10T10:27:52.197Z,12.62
2019-04-10T10:28:52.512Z,12.48
2019-04-10T10:29:53.522Z,12.51
2019-04-10T10:30:52.237Z,12.59
2019-04-10T10:31:52.687Z,12.53
2019-04-10T10:32:53.171Z,12.65
2019-04-10T10:33:52.234Z,12.66
2019-04-10T10:34:52.490Z,12.65
2019-04-10T10:35:52.133Z,12.71
2019-04-10T10:36:53.300Z,12.86
2019-04-10T10:37:52.076Z,12.90
2019-04-10T10:39:03.644Z,12.93
2019-04-10T10:39:53.053Z,12.88
2019-04-10T10:40:52.884Z,12.86
2019-04-10T10:41:52.072Z,12.80
2019-04-10T10:42:52.020Z,12.76
2019-04-10T10:43:52.978Z,12.79
2019-04-10T10:44:52.225Z,12.91
2019-04-10T10:45:51.991Z,12.95
2019-04-10T10:46:51.977Z,13.09
2019-04-10T10:47:52.674Z,13.14
2019-04-10T10:48:51.970Z,13.30
2019-04-10T10:49:52.839Z,13.29
2019-04-10T10:50:53.204Z,13.47
2019-04-10T10:51:53.209Z,13.53
2019-04-10T10:52:52.198Z,13.63
2019-04-10T10:53:52.502Z,13.65
2019-04-10T10:54:51.896Z,13.78
2019-04-10T10:55:51.876Z,13.76
2019-04-10T10:56:52.889Z,13.83
2019-04-10T10:57:51.865Z,13.79
2019-04-10T10:58:53.032Z,13.82
2019-04-10T10:59:51.945Z,13.58
2019-04-10T11:00:51.860Z,13.63
2019-04-10T11:01:51.975Z,13.80
2019-04-10T11:02:51.953Z,13.91
2019-04-10T11:03:51.788Z,13.97
2019-04-10T11:04:51.787Z,14.19
2019-04-10T11:05:52.803Z,14.18
2019-04-10T11:06:59.640Z,14.13
2019-04-10T11:07:53.119Z,14.15
2019-04-10T11:08:51.752Z,14.09
2019-04-10T11:09:52.947Z,14.05
2019-04-10T11:10:55.687Z,14.23
2019-04-10T11:11:51.737Z,14.19
2019-04-10T11:12:52.191Z,14.22
2019-04-10T11:13:51.745Z,14.22
2019-04-10T11:14:52.301Z,14.18
2019-04-10T11:15:52.514Z,14.05
2019-04-10T11:16:51.751Z,14.09
2019-04-10T11:17:52.056Z,14.11
2019-04-10T11:18:52.956Z,14.16
2019-04-10T11:19:51.609Z,14.19
2019-04-10T11:20:52.297Z,14.22
2019-04-10T11:21:51.587Z,14.15
2019-04-10T11:22:51.578Z,14.22
2019-04-10T11:23:53.146Z,14.11
2019-04-10T11:24:51.554Z,14.03
2019-04-10T11:25:52.729Z,14.16
2019-04-10T11:26:51.956Z,14.22
2019-04-10T11:27:51.651Z,14.19
2019-04-10T11:28:51.511Z,14.22
2019-04-10T11:29:51.550Z,14.28
2019-04-10T11:30:51.488Z,14.16
2019-04-10T11:31:51.482Z,14.08
2019-04-10T11:32:52.453Z,14.16
2019-04-10T11:33:54.971Z,14.15
2019-04-10T11:34:52.629Z,14.11
2019-04-10T11:35:51.661Z,14.16
2019-04-10T11:37:14.168Z,14.04
2019-04-10T11:37:56.182Z,13.80
2019-04-10T11:38:54.849Z,13.82
2019-04-10T11:39:51.759Z,13.78
2019-04-10T11:40:52.173Z,13.72
2019-04-10T11:41:52.777Z,13.61
2019-04-10T11:42:52.693Z,13.63
2019-04-10T11:43:52.770Z,13.60
2019-04-10T11:44:53.811Z,13.64
2019-04-10T11:45:53.851Z,13.75
2019-04-10T11:46:55.138Z,13.76
2019-04-10T11:47:51.728Z,13.85
2019-04-10T11:48:51.902Z,13.68
2019-04-10T11:49:53.329Z,13.73
2019-04-10T11:50:53.583Z,13.73
2019-04-10T11:51:53.639Z,13.78
2019-04-10T11:52:53.354Z,13.51
2019-04-10T11:53:55.868Z,13.60
2019-04-10T11:54:53.181Z,13.61
2019-04-10T11:55:53.652Z,13.64
2019-04-10T11:56:54.934Z,13.64
2019-04-10T11:57:51.670Z,13.55
2019-04-10T11:59:52.163Z,13.55
2019-04-10T12:00:53.150Z,13.51
2019-04-10T12:01:57.023Z,13.54
2019-04-10T12:02:53.528Z,13.51
2019-04-10T12:03:54.337Z,13.63
2019-04-10T12:04:55.689Z,13.64
2019-04-10T12:05:55.139Z,13.60
2019-04-10T12:06:54.041Z,13.72
2019-04-10T12:08:16.230Z,13.80
2019-04-10T12:09:13.764Z,13.83
2019-04-10T12:11:53.028Z,13.83
2019-04-10T12:12:52.223Z,13.80
2019-04-10T12:13:51.025Z,13.78
2019-04-10T12:14:52.022Z,13.73
2019-04-10T12:15:51.021Z,13.80
2019-04-10T12:16:51.562Z,13.93
2019-04-10T12:17:51.996Z,13.90
2019-04-10T12:18:50.992Z,13.98
2019-04-10T12:19:50.949Z,14.03
2019-04-10T12:20:51.519Z,13.97
2019-04-10T12:21:51.116Z,14.04
2019-04-10T12:22:50.911Z,14.11
2019-04-10T12:23:51.490Z,14.27
2019-04-10T12:24:51.685Z,14.30
2019-04-10T12:25:52.024Z,14.15
2019-04-10T12:26:51.891Z,14.26
2019-04-10T12:27:51.592Z,14.22
2019-04-10T12:28:51.858Z,14.27
2019-04-10T12:29:51.037Z,14.13
2019-04-10T12:30:51.281Z,14.13
2019-04-10T12:31:50.810Z,14.09
2019-04-10T12:32:50.820Z,14.15
2019-04-10T12:33:50.817Z,14.05
2019-04-10T12:34:50.894Z,14.21
2019-04-10T12:35:50.901Z,14.38
2019-04-10T12:36:51.809Z,14.46
2019-04-10T12:38:01.448Z,14.63
2019-04-10T12:38:51.757Z,14.59
2019-04-10T12:39:50.802Z,14.48
2019-04-10T12:40:50.925Z,14.26
2019-04-10T12:41:50.700Z,14.37
2019-04-10T12:42:50.688Z,14.44
2019-04-10T12:43:51.462Z,14.45
2019-04-10T12:44:51.399Z,14.31
2019-04-10T12:45:50.759Z,14.46
2019-04-10T12:46:51.180Z,14.56
2019-04-10T12:47:50.633Z,14.61
2019-04-10T12:48:50.741Z,14.55
2019-04-10T12:49:50.612Z,14.48
2019-04-10T12:50:50.598Z,14.61
2019-04-10T12:51:50.641Z,14.64
2019-04-10T12:52:51.264Z,14.92
2019-04-10T12:53:50.567Z,14.95
2019-04-10T12:54:51.193Z,14.82
2019-04-10T12:55:51.437Z,15.01
2019-04-10T12:56:50.636Z,15.12
2019-04-10T12:57:51.071Z,14.97
2019-04-10T12:58:51.000Z,15.17
2019-04-10T12:59:50.510Z,15.38
2019-04-10T13:00:50.621Z,15.43
2019-04-10T13:01:51.131Z,15.72
2019-04-10T13:02:50.478Z,15.91
2019-04-10T13:03:51.523Z,16.17
2019-04-10T13:04:50.446Z,16.28
2019-04-10T13:05:51.473Z,16.44
2019-04-10T13:06:52.589Z,16.49
2019-04-10T13:07:50.413Z,16.80
2019-04-10T13:09:01.079Z,17.28
2019-04-10T13:09:51.450Z,17.45
2019-04-10T13:10:50.382Z,17.56
2019-04-10T13:14:12.772Z,17.83
2019-04-10T13:15:13.054Z,17.62
2019-04-10T13:16:12.574Z,18.15